sensor_id;sensor_type;location;lat;lon;timestamp;temperature;humidity
64620;DHT22;51029;51.058;13.826;2022-11-15T00:00:26;7.40;99.90
64620;DHT22;51029;51.058;13.826;2022-11-15T00:02:55;7.40;99.90
64620;DHT22;51029;51.058;13.826;2022-11-15T00:05:21;7.40;99.90
64620;DHT22;51029;51.058;13.826;2022-11-15T00:07:46;7.40;99.90
64620;DHT22;51029;51.058;13.826;2022-11-15T00:10:12;7.40;99.90
64620;DHT22;51029;51.058;13.826;2022-11-15T00:12:37;7.30;99.90
64620;DHT22;51029;51.058;13.826;2022-11-15T00:15:03;7.30;99.90
64620;DHT22;51029;51.058;13.826;2022-11-15T00:17:29;7.20;99.90
64620;DHT22;51029;51.058;13.826;2022-11-15T00:19:55;7.20;99.90
64620;DHT22;51029;51.058;13.826;2022-11-15T00:22:21;7.10;99.90
64620;DHT22;51029;51.058;13.826;2022-11-15T00:24:47;7.20;99.90
64620;DHT22;51029;51.058;13.826;2022-11-15T00:27:12;7.20;99.90
64620;DHT22;51029;51.058;13.826;2022-11-15T00:29:38;7.20;99.90
64620;DHT22;51029;51.058;13.826;2022-11-15T00:32:11;7.20;99.90
64620;DHT22;51029;51.058;13.826;2022-11-15T00:34:36;7.20;99.90
64620;DHT22;51029;51.058;13.826;2022-11-15T00:37:02;7.40;99.90
64620;DHT22;51029;51.058;13.826;2022-11-15T00:39:27;7.50;99.90
64620;DHT22;51029;51.058;13.826;2022-11-15T00:41:53;7.50;99.90
64620;DHT22;51029;51.058;13.826;2022-11-15T00:44:19;7.60;99.90
64620;DHT22;51029;51.058;13.826;2022-11-15T00:46:44;7.50;99.90
64620;DHT22;51029;51.058;13.826;2022-11-15T00:49:10;7.60;99.90
64620;DHT22;51029;51.058;13.826;2022-11-15T00:51:35;7.50;99.90
64620;DHT22;51029;51.058;13.826;2022-11-15T00:54:01;7.50;99.90
64620;DHT22;51029;51.058;13.826;2022-11-15T00:56:27;7.50;99.90
64620;DHT22;51029;51.058;13.826;2022-11-15T00:58:53;7.40;99.90
64620;DHT22;51029;51.058;13.826;2022-11-15T01:01:18;7.40;99.90
64620;DHT22;51029;51.058;13.826;2022-11-15T01:03:44;7.40;99.90
64620;DHT22;51029;51.058;13.826;2022-11-15T01:06:10;7.30;99.90
64620;DHT22;51029;51.058;13.826;2022-11-15T01:08:39;7.30;99.90
64620;DHT22;51029;51.058;13.826;2022-11-15T01:11:07;7.20;99.90
64620;DHT22;51029;51.058;13.826;2022-11-15T01:13:34;7.10;99.90
64620;DHT22;51029;51.058;13.826;2022-11-15T01:16:07;7.10;99.90
64620;DHT22;51029;51.058;13.826;2022-11-15T01:18:33;7.10;99.90
64620;DHT22;51029;51.058;13.826;2022-11-15T01:20:58;7.10;99.90
64620;DHT22;51029;51.058;13.826;2022-11-15T01:23:24;7.10;99.90
64620;DHT22;51029;51.058;13.826;2022-11-15T01:25:49;7.10;99.90
64620;DHT22;51029;51.058;13.826;2022-11-15T01:28:15;7.30;99.90
64620;DHT22;51029;51.058;13.826;2022-11-15T01:30:40;7.30;99.90
64620;DHT22;51029;51.058;13.826;2022-11-15T01:33:06;7.30;99.90
64620;DHT22;51029;51.058;13.826;2022-11-15T01:35:32;7.30;99.90
64620;DHT22;51029;51.058;13.826;2022-11-15T01:37:57;7.30;99.90
64620;DHT22;51029;51.058;13.826;2022-11-15T01:40:23;7.40;99.90
64620;DHT22;51029;51.058;13.826;2022-11-15T01:42:49;7.40;99.90
64620;DHT22;51029;51.058;13.826;2022-11-15T01:45:15;7.30;99.90
64620;DHT22;51029;51.058;13.826;2022-11-15T01:47:43;7.30;99.90
64620;DHT22;51029;51.058;13.826;2022-11-15T01:50:17;7.30;99.90
64620;DHT22;51029;51.058;13.826;2022-11-15T01:52:45;7.30;99.90
64620;DHT22;51029;51.058;13.826;2022-11-15T01:55:20;7.30;99.90
64620;DHT22;51029;51.058;13.826;2022-11-15T01:57:49;7.30;99.90
64620;DHT22;51029;51.058;13.826;2022-11-15T02:00:16;7.40;99.90
64620;DHT22;51029;51.058;13.826;2022-11-15T02:02:42;7.40;99.90
64620;DHT22;51029;51.058;13.826;2022-11-15T02:05:08;7.40;99.90
64620;DHT22;51029;51.058;13.826;2022-11-15T02:07:35;7.40;99.90
64620;DHT22;51029;51.058;13.826;2022-11-15T02:10:11;7.50;99.90
64620;DHT22;51029;51.058;13.826;2022-11-15T02:12:37;7.50;99.90
64620;DHT22;51029;51.058;13.826;2022-11-15T02:15:04;7.50;99.90
64620;DHT22;51029;51.058;13.826;2022-11-15T02:17:48;7.40;99.90
64620;DHT22;51029;51.058;13.826;2022-11-15T02:37:32;7.20;99.90
64620;DHT22;51029;51.058;13.826;2022-11-15T02:43:00;7.20;99.90
64620;DHT22;51029;51.058;13.826;2022-11-15T02:45:52;7.10;99.90
64620;DHT22;51029;51.058;13.826;2022-11-15T02:48:22;7.00;99.90
64620;DHT22;51029;51.058;13.826;2022-11-15T02:50:48;7.00;99.90
64620;DHT22;51029;51.058;13.826;2022-11-15T02:53:15;6.90;99.90
64620;DHT22;51029;51.058;13.826;2022-11-15T02:55:47;6.80;99.90
64620;DHT22;51029;51.058;13.826;2022-11-15T02:58:36;6.80;99.90
64620;DHT22;51029;51.058;13.826;2022-11-15T03:01:27;6.70;99.90
64620;DHT22;51029;51.058;13.826;2022-11-15T03:09:25;6.60;99.90
64620;DHT22;51029;51.058;13.826;2022-11-15T03:11:59;6.60;99.90
64620;DHT22;51029;51.058;13.826;2022-11-15T03:14:30;6.60;99.90
64620;DHT22;51029;51.058;13.826;2022-11-15T03:19:49;6.60;99.90
64620;DHT22;51029;51.058;13.826;2022-11-15T03:22:19;6.50;99.90
64620;DHT22;51029;51.058;13.826;2022-11-15T03:24:52;6.60;99.90
64620;DHT22;51029;51.058;13.826;2022-11-15T03:27:23;6.50;99.90
64620;DHT22;51029;51.058;13.826;2022-11-15T03:29:53;6.50;99.90
64620;DHT22;51029;51.058;13.826;2022-11-15T03:32:24;6.50;99.90
64620;DHT22;51029;51.058;13.826;2022-11-15T03:34:58;6.40;99.90
64620;DHT22;51029;51.058;13.826;2022-11-15T03:37:44;6.30;99.90
64620;DHT22;51029;51.058;13.826;2022-11-15T03:40:11;6.30;99.90
64620;DHT22;51029;51.058;13.826;2022-11-15T03:45:23;6.20;99.90
64620;DHT22;51029;51.058;13.826;2022-11-15T03:47:58;6.20;99.90
64620;DHT22;51029;51.058;13.826;2022-11-15T03:50:26;6.20;99.90
64620;DHT22;51029;51.058;13.826;2022-11-15T03:52:54;6.20;99.90
64620;DHT22;51029;51.058;13.826;2022-11-15T03:55:20;6.20;99.90
64620;DHT22;51029;51.058;13.826;2022-11-15T03:57:51;6.10;99.90
64620;DHT22;51029;51.058;13.826;2022-11-15T04:00:18;6.10;99.90
64620;DHT22;51029;51.058;13.826;2022-11-15T04:02:44;6.10;99.90
64620;DHT22;51029;51.058;13.826;2022-11-15T04:05:10;6.00;99.90
64620;DHT22;51029;51.058;13.826;2022-11-15T04:07:35;6.00;99.90
64620;DHT22;51029;51.058;13.826;2022-11-15T04:10:01;6.00;99.90
64620;DHT22;51029;51.058;13.826;2022-11-15T04:12:34;6.00;99.90
64620;DHT22;51029;51.058;13.826;2022-11-15T04:15:08;6.00;99.90
64620;DHT22;51029;51.058;13.826;2022-11-15T04:17:36;6.00;99.90
64620;DHT22;51029;51.058;13.826;2022-11-15T04:20:08;6.00;99.90
64620;DHT22;51029;51.058;13.826;2022-11-15T04:22:56;6.00;99.90
64620;DHT22;51029;51.058;13.826;2022-11-15T04:25:42;6.00;99.90
64620;DHT22;51029;51.058;13.826;2022-11-15T04:28:08;5.90;99.90
64620;DHT22;51029;51.058;13.826;2022-11-15T04:30:34;5.90;99.90
64620;DHT22;51029;51.058;13.826;2022-11-15T04:33:00;5.90;99.90
64620;DHT22;51029;51.058;13.826;2022-11-15T04:35:25;5.90;99.90
64620;DHT22;51029;51.058;13.826;2022-11-15T04:37:51;5.90;99.90
64620;DHT22;51029;51.058;13.826;2022-11-15T04:40:17;5.90;99.90
64620;DHT22;51029;51.058;13.826;2022-11-15T04:42:42;5.90;99.90
64620;DHT22;51029;51.058;13.826;2022-11-15T04:45:09;5.90;99.90
64620;DHT22;51029;51.058;13.826;2022-11-15T04:47:34;5.90;99.90
64620;DHT22;51029;51.058;13.826;2022-11-15T04:50:00;5.80;99.90
64620;DHT22;51029;51.058;13.826;2022-11-15T04:52:25;5.80;99.90
64620;DHT22;51029;51.058;13.826;2022-11-15T04:54:51;5.80;99.90
64620;DHT22;51029;51.058;13.826;2022-11-15T04:57:17;5.80;99.90
64620;DHT22;51029;51.058;13.826;2022-11-15T04:59:42;5.80;99.90
64620;DHT22;51029;51.058;13.826;2022-11-15T05:02:08;5.80;99.90
64620;DHT22;51029;51.058;13.826;2022-11-15T05:04:34;5.80;99.90
64620;DHT22;51029;51.058;13.826;2022-11-15T05:06:59;5.80;99.90
64620;DHT22;51029;51.058;13.826;2022-11-15T05:09:25;5.80;99.90
64620;DHT22;51029;51.058;13.826;2022-11-15T05:11:51;5.70;99.90
64620;DHT22;51029;51.058;13.826;2022-11-15T05:14:16;5.70;99.90
64620;DHT22;51029;51.058;13.826;2022-11-15T05:16:42;5.70;99.90
64620;DHT22;51029;51.058;13.826;2022-11-15T05:19:08;5.70;99.90
64620;DHT22;51029;51.058;13.826;2022-11-15T05:21:34;5.70;99.90
64620;DHT22;51029;51.058;13.826;2022-11-15T05:24:00;5.70;99.90
64620;DHT22;51029;51.058;13.826;2022-11-15T05:26:26;5.70;99.90
64620;DHT22;51029;51.058;13.826;2022-11-15T05:28:57;5.70;99.90
64620;DHT22;51029;51.058;13.826;2022-11-15T05:31:23;5.70;99.90
64620;DHT22;51029;51.058;13.826;2022-11-15T05:33:50;5.70;99.90
64620;DHT22;51029;51.058;13.826;2022-11-15T05:36:33;5.70;99.90
64620;DHT22;51029;51.058;13.826;2022-11-15T05:39:00;5.70;99.90
64620;DHT22;51029;51.058;13.826;2022-11-15T05:41:31;5.70;99.90
64620;DHT22;51029;51.058;13.826;2022-11-15T05:43:58;5.70;99.90
64620;DHT22;51029;51.058;13.826;2022-11-15T05:46:25;5.70;99.90
64620;DHT22;51029;51.058;13.826;2022-11-15T05:48:53;5.80;99.90
64620;DHT22;51029;51.058;13.826;2022-11-15T05:51:20;5.80;99.90
64620;DHT22;51029;51.058;13.826;2022-11-15T05:53:46;5.80;99.90
64620;DHT22;51029;51.058;13.826;2022-11-15T05:56:12;5.80;99.90
64620;DHT22;51029;51.058;13.826;2022-11-15T05:58:38;5.80;99.90
64620;DHT22;51029;51.058;13.826;2022-11-15T06:01:04;5.80;99.90
64620;DHT22;51029;51.058;13.826;2022-11-15T06:03:30;5.80;99.90
64620;DHT22;51029;51.058;13.826;2022-11-15T06:05:56;5.80;99.90
64620;DHT22;51029;51.058;13.826;2022-11-15T06:08:22;5.80;99.90
64620;DHT22;51029;51.058;13.826;2022-11-15T06:10:47;5.80;99.90
64620;DHT22;51029;51.058;13.826;2022-11-15T06:13:13;5.70;99.90
64620;DHT22;51029;51.058;13.826;2022-11-15T06:15:39;5.70;99.90
64620;DHT22;51029;51.058;13.826;2022-11-15T06:18:04;5.70;99.90
64620;DHT22;51029;51.058;13.826;2022-11-15T06:20:30;5.70;99.90
64620;DHT22;51029;51.058;13.826;2022-11-15T06:23:00;5.70;99.90
64620;DHT22;51029;51.058;13.826;2022-11-15T06:25:30;5.70;99.90
64620;DHT22;51029;51.058;13.826;2022-11-15T06:27:57;5.80;99.90
64620;DHT22;51029;51.058;13.826;2022-11-15T06:30:24;5.80;99.90
64620;DHT22;51029;51.058;13.826;2022-11-15T06:32:50;5.80;99.90
64620;DHT22;51029;51.058;13.826;2022-11-15T06:35:16;5.80;99.90
64620;DHT22;51029;51.058;13.826;2022-11-15T06:37:41;5.80;99.90
64620;DHT22;51029;51.058;13.826;2022-11-15T06:40:08;5.80;99.90
64620;DHT22;51029;51.058;13.826;2022-11-15T06:42:34;5.90;99.90
64620;DHT22;51029;51.058;13.826;2022-11-15T06:45:00;5.90;99.90
64620;DHT22;51029;51.058;13.826;2022-11-15T06:47:26;5.90;99.90
64620;DHT22;51029;51.058;13.826;2022-11-15T06:49:51;5.90;99.90
64620;DHT22;51029;51.058;13.826;2022-11-15T06:52:17;5.90;99.90
64620;DHT22;51029;51.058;13.826;2022-11-15T06:54:47;5.90;99.90
64620;DHT22;51029;51.058;13.826;2022-11-15T06:57:12;6.10;99.90
64620;DHT22;51029;51.058;13.826;2022-11-15T06:59:38;6.10;99.90
64620;DHT22;51029;51.058;13.826;2022-11-15T07:02:03;6.10;99.90
64620;DHT22;51029;51.058;13.826;2022-11-15T07:04:29;6.20;99.90
64620;DHT22;51029;51.058;13.826;2022-11-15T07:06:55;6.20;99.90
64620;DHT22;51029;51.058;13.826;2022-11-15T07:09:20;6.20;99.90
64620;DHT22;51029;51.058;13.826;2022-11-15T07:11:46;6.30;99.90
64620;DHT22;51029;51.058;13.826;2022-11-15T07:14:12;6.40;99.90
64620;DHT22;51029;51.058;13.826;2022-11-15T07:16:37;6.40;99.90
64620;DHT22;51029;51.058;13.826;2022-11-15T07:19:03;6.40;99.90
64620;DHT22;51029;51.058;13.826;2022-11-15T07:21:29;6.50;99.90
64620;DHT22;51029;51.058;13.826;2022-11-15T07:23:55;6.60;99.90
64620;DHT22;51029;51.058;13.826;2022-11-15T07:26:20;6.60;99.90
64620;DHT22;51029;51.058;13.826;2022-11-15T07:28:46;6.60;99.90
64620;DHT22;51029;51.058;13.826;2022-11-15T07:31:12;6.70;99.90
64620;DHT22;51029;51.058;13.826;2022-11-15T07:33:37;6.80;99.90
64620;DHT22;51029;51.058;13.826;2022-11-15T07:36:04;6.80;99.90
64620;DHT22;51029;51.058;13.826;2022-11-15T07:38:31;6.90;99.90
64620;DHT22;51029;51.058;13.826;2022-11-15T07:40:58;6.90;99.90
64620;DHT22;51029;51.058;13.826;2022-11-15T07:43:24;7.00;99.90
64620;DHT22;51029;51.058;13.826;2022-11-15T07:45:50;7.00;99.90
64620;DHT22;51029;51.058;13.826;2022-11-15T07:48:16;7.10;99.90
64620;DHT22;51029;51.058;13.826;2022-11-15T07:50:42;7.10;99.90
64620;DHT22;51029;51.058;13.826;2022-11-15T07:53:09;7.10;99.90
64620;DHT22;51029;51.058;13.826;2022-11-15T07:55:34;7.10;99.90
64620;DHT22;51029;51.058;13.826;2022-11-15T07:58:05;7.20;99.90
64620;DHT22;51029;51.058;13.826;2022-11-15T08:00:31;7.30;99.90
64620;DHT22;51029;51.058;13.826;2022-11-15T08:03:11;7.40;99.90
64620;DHT22;51029;51.058;13.826;2022-11-15T08:05:38;7.50;99.90
64620;DHT22;51029;51.058;13.826;2022-11-15T08:08:04;7.60;99.90
64620;DHT22;51029;51.058;13.826;2022-11-15T08:10:30;7.70;99.90
64620;DHT22;51029;51.058;13.826;2022-11-15T08:13:00;7.90;99.90
64620;DHT22;51029;51.058;13.826;2022-11-15T08:15:26;7.90;99.90
64620;DHT22;51029;51.058;13.826;2022-11-15T08:18:06;8.00;99.90
64620;DHT22;51029;51.058;13.826;2022-11-15T08:20:32;8.10;99.90
64620;DHT22;51029;51.058;13.826;2022-11-15T08:23:00;8.20;99.90
64620;DHT22;51029;51.058;13.826;2022-11-15T08:25:27;8.30;99.90
64620;DHT22;51029;51.058;13.826;2022-11-15T08:27:55;8.50;99.90
64620;DHT22;51029;51.058;13.826;2022-11-15T08:30:21;8.80;99.90
64620;DHT22;51029;51.058;13.826;2022-11-15T08:32:47;9.30;99.90
64620;DHT22;51029;51.058;13.826;2022-11-15T08:35:13;9.90;99.90
64620;DHT22;51029;51.058;13.826;2022-11-15T08:37:38;10.50;99.90
64620;DHT22;51029;51.058;13.826;2022-11-15T08:40:05;11.10;99.90
64620;DHT22;51029;51.058;13.826;2022-11-15T08:42:31;11.70;99.90
64620;DHT22;51029;51.058;13.826;2022-11-15T08:44:56;12.20;99.90
64620;DHT22;51029;51.058;13.826;2022-11-15T08:47:22;12.80;99.90
64620;DHT22;51029;51.058;13.826;2022-11-15T08:49:48;13.10;99.90
64620;DHT22;51029;51.058;13.826;2022-11-15T08:52:14;13.60;99.90
64620;DHT22;51029;51.058;13.826;2022-11-15T08:54:40;13.90;99.90
64620;DHT22;51029;51.058;13.826;2022-11-15T08:57:06;14.20;99.30
64620;DHT22;51029;51.058;13.826;2022-11-15T08:59:31;14.50;98.40
64620;DHT22;51029;51.058;13.826;2022-11-15T09:01:57;14.90;97.30
64620;DHT22;51029;51.058;13.826;2022-11-15T09:04:22;15.20;96.30
64620;DHT22;51029;51.058;13.826;2022-11-15T09:06:48;15.50;95.00
64620;DHT22;51029;51.058;13.826;2022-11-15T09:09:14;15.80;94.00
64620;DHT22;51029;51.058;13.826;2022-11-15T09:11:40;16.10;92.90
64620;DHT22;51029;51.058;13.826;2022-11-15T09:14:05;16.60;91.90
64620;DHT22;51029;51.058;13.826;2022-11-15T09:16:31;16.80;90.70
64620;DHT22;51029;51.058;13.826;2022-11-15T09:18:57;17.20;89.80
64620;DHT22;51029;51.058;13.826;2022-11-15T09:21:23;17.70;87.10
64620;DHT22;51029;51.058;13.826;2022-11-15T09:23:52;17.90;84.80
64620;DHT22;51029;51.058;13.826;2022-11-15T09:26:18;18.20;83.30
64620;DHT22;51029;51.058;13.826;2022-11-15T09:28:44;18.50;81.20
64620;DHT22;51029;51.058;13.826;2022-11-15T09:31:09;18.80;79.50
64620;DHT22;51029;51.058;13.826;2022-11-15T09:33:36;19.10;77.70
64620;DHT22;51029;51.058;13.826;2022-11-15T09:36:05;19.40;76.10
64620;DHT22;51029;51.058;13.826;2022-11-15T09:38:32;19.60;74.30
64620;DHT22;51029;51.058;13.826;2022-11-15T09:49:22;21.50;65.30
64620;DHT22;51029;51.058;13.826;2022-11-15T09:51:53;21.70;64.00
64620;DHT22;51029;51.058;13.826;2022-11-15T09:54:34;22.30;63.30
64620;DHT22;51029;51.058;13.826;2022-11-15T09:57:12;22.60;59.90
64620;DHT22;51029;51.058;13.826;2022-11-15T10:02:54;23.90;56.10
64620;DHT22;51029;51.058;13.826;2022-11-15T10:05:23;24.30;55.10
64620;DHT22;51029;51.058;13.826;2022-11-15T10:10:30;25.50;51.90
64620;DHT22;51029;51.058;13.826;2022-11-15T10:12:57;25.60;51.20
64620;DHT22;51029;51.058;13.826;2022-11-15T10:15:23;26.20;50.90
64620;DHT22;51029;51.058;13.826;2022-11-15T10:18:06;26.50;50.10
64620;DHT22;51029;51.058;13.826;2022-11-15T10:20:50;26.80;49.00
64620;DHT22;51029;51.058;13.826;2022-11-15T10:23:19;27.30;48.00
64620;DHT22;51029;51.058;13.826;2022-11-15T10:25:45;27.70;47.10
64620;DHT22;51029;51.058;13.826;2022-11-15T10:28:13;28.40;45.80
64620;DHT22;51029;51.058;13.826;2022-11-15T10:30:42;28.90;44.70
64620;DHT22;51029;51.058;13.826;2022-11-15T10:39:01;30.10;41.40
64620;DHT22;51029;51.058;13.826;2022-11-15T10:44:10;30.90;39.70
64620;DHT22;51029;51.058;13.826;2022-11-15T10:46:39;31.80;38.30
64620;DHT22;51029;51.058;13.826;2022-11-15T10:49:19;32.20;36.90
64620;DHT22;51029;51.058;13.826;2022-11-15T10:52:13;32.10;36.80
64620;DHT22;51029;51.058;13.826;2022-11-15T10:54:50;32.70;35.90
64620;DHT22;51029;51.058;13.826;2022-11-15T10:57:23;32.60;36.00
64620;DHT22;51029;51.058;13.826;2022-11-15T10:59:57;32.90;35.40
64620;DHT22;51029;51.058;13.826;2022-11-15T11:02:36;33.20;34.80
64620;DHT22;51029;51.058;13.826;2022-11-15T11:05:05;33.60;34.20
64620;DHT22;51029;51.058;13.826;2022-11-15T11:07:34;34.30;32.90
64620;DHT22;51029;51.058;13.826;2022-11-15T11:10:21;34.50;32.30
64620;DHT22;51029;51.058;13.826;2022-11-15T11:12:47;34.80;32.00
64620;DHT22;51029;51.058;13.826;2022-11-15T11:15:15;34.60;31.50
64620;DHT22;51029;51.058;13.826;2022-11-15T11:18:12;34.50;31.90
64620;DHT22;51029;51.058;13.826;2022-11-15T11:20:51;33.70;31.90
64620;DHT22;51029;51.058;13.826;2022-11-15T11:37:12;33.10;32.60
64620;DHT22;51029;51.058;13.826;2022-11-15T11:51:33;34.00;31.50
64620;DHT22;51029;51.058;13.826;2022-11-15T11:54:05;34.50;30.60
64620;DHT22;51029;51.058;13.826;2022-11-15T11:56:37;34.80;30.40
64620;DHT22;51029;51.058;13.826;2022-11-15T12:01:51;34.30;30.50
64620;DHT22;51029;51.058;13.826;2022-11-15T12:04:35;34.80;30.00
64620;DHT22;51029;51.058;13.826;2022-11-15T12:07:27;34.70;29.80
64620;DHT22;51029;51.058;13.826;2022-11-15T12:12:49;34.60;29.90
64620;DHT22;51029;51.058;13.826;2022-11-15T12:15:27;34.80;29.70
64620;DHT22;51029;51.058;13.826;2022-11-15T12:17:56;34.60;29.80
64620;DHT22;51029;51.058;13.826;2022-11-15T12:20:24;34.80;29.60
64620;DHT22;51029;51.058;13.826;2022-11-15T12:25:45;34.60;29.60
64620;DHT22;51029;51.058;13.826;2022-11-15T12:31:26;34.00;30.10
64620;DHT22;51029;51.058;13.826;2022-11-15T12:33:56;34.20;29.70
64620;DHT22;51029;51.058;13.826;2022-11-15T12:39:05;34.70;30.00
64620;DHT22;51029;51.058;13.826;2022-11-15T13:02:41;33.70;30.00
64620;DHT22;51029;51.058;13.826;2022-11-15T13:17:49;31.80;31.40
64620;DHT22;51029;51.058;13.826;2022-11-15T13:22:58;31.40;32.20
64620;DHT22;51029;51.058;13.826;2022-11-15T13:27:56;31.20;32.20
64620;DHT22;51029;51.058;13.826;2022-11-15T13:30:25;30.70;32.30
64620;DHT22;51029;51.058;13.826;2022-11-15T13:32:51;30.50;32.80
64620;DHT22;51029;51.058;13.826;2022-11-15T13:35:41;30.30;33.00
64620;DHT22;51029;51.058;13.826;2022-11-15T13:38:33;29.10;34.00
64620;DHT22;51029;51.058;13.826;2022-11-15T13:41:10;26.60;36.30
64620;DHT22;51029;51.058;13.826;2022-11-15T13:43:36;24.00;40.20
64620;DHT22;51029;51.058;13.826;2022-11-15T13:46:32;21.90;43.90
64620;DHT22;51029;51.058;13.826;2022-11-15T13:49:08;20.40;47.70
64620;DHT22;51029;51.058;13.826;2022-11-15T13:51:40;19.20;50.00
64620;DHT22;51029;51.058;13.826;2022-11-15T13:56:55;17.50;54.70
64620;DHT22;51029;51.058;13.826;2022-11-15T13:59:35;17.00;57.00
64620;DHT22;51029;51.058;13.826;2022-11-15T14:02:25;16.60;58.20
64620;DHT22;51029;51.058;13.826;2022-11-15T14:07:21;15.70;61.90
64620;DHT22;51029;51.058;13.826;2022-11-15T14:09:47;15.50;63.20
64620;DHT22;51029;51.058;13.826;2022-11-15T14:12:26;15.30;64.60
64620;DHT22;51029;51.058;13.826;2022-11-15T14:14:52;15.00;65.60
64620;DHT22;51029;51.058;13.826;2022-11-15T14:17:42;14.90;66.30
64620;DHT22;51029;51.058;13.826;2022-11-15T14:22:55;14.50;67.80
64620;DHT22;51029;51.058;13.826;2022-11-15T14:25:26;14.30;68.60
64620;DHT22;51029;51.058;13.826;2022-11-15T14:30:44;13.90;70.20
64620;DHT22;51029;51.058;13.826;2022-11-15T14:33:35;13.70;71.10
64620;DHT22;51029;51.058;13.826;2022-11-15T14:36:05;13.50;72.10
64620;DHT22;51029;51.058;13.826;2022-11-15T14:38:31;13.20;73.10
64620;DHT22;51029;51.058;13.826;2022-11-15T14:40:57;13.10;74.30
64620;DHT22;51029;51.058;13.826;2022-11-15T14:43:23;13.00;75.40
64620;DHT22;51029;51.058;13.826;2022-11-15T14:45:49;12.70;75.80
64620;DHT22;51029;51.058;13.826;2022-11-15T14:48:15;12.60;77.10
64620;DHT22;51029;51.058;13.826;2022-11-15T14:50:40;12.40;77.90
64620;DHT22;51029;51.058;13.826;2022-11-15T14:53:06;12.30;79.10
64620;DHT22;51029;51.058;13.826;2022-11-15T14:55:34;12.10;80.50
64620;DHT22;51029;51.058;13.826;2022-11-15T14:58:02;11.90;81.70
64620;DHT22;51029;51.058;13.826;2022-11-15T15:00:32;11.60;83.20
64620;DHT22;51029;51.058;13.826;2022-11-15T15:02:58;11.40;84.50
64620;DHT22;51029;51.058;13.826;2022-11-15T15:05:42;11.20;86.40
64620;DHT22;51029;51.058;13.826;2022-11-15T15:08:09;11.00;88.20
64620;DHT22;51029;51.058;13.826;2022-11-15T15:10:41;10.90;90.20
64620;DHT22;51029;51.058;13.826;2022-11-15T15:13:17;10.70;91.20
64620;DHT22;51029;51.058;13.826;2022-11-15T15:15:43;10.60;91.70
64620;DHT22;51029;51.058;13.826;2022-11-15T15:18:09;10.60;92.40
64620;DHT22;51029;51.058;13.826;2022-11-15T15:20:38;10.50;93.20
64620;DHT22;51029;51.058;13.826;2022-11-15T15:23:05;10.30;93.90
64620;DHT22;51029;51.058;13.826;2022-11-15T15:25:33;10.30;94.50
64620;DHT22;51029;51.058;13.826;2022-11-15T15:27:59;10.20;95.00
64620;DHT22;51029;51.058;13.826;2022-11-15T15:30:28;10.10;95.40
64620;DHT22;51029;51.058;13.826;2022-11-15T15:32:53;10.10;95.50
64620;DHT22;51029;51.058;13.826;2022-11-15T15:35:19;10.00;95.90
64620;DHT22;51029;51.058;13.826;2022-11-15T15:37:46;9.90;96.80
64620;DHT22;51029;51.058;13.826;2022-11-15T15:40:18;9.80;97.10
64620;DHT22;51029;51.058;13.826;2022-11-15T15:42:45;9.70;97.60
64620;DHT22;51029;51.058;13.826;2022-11-15T15:45:11;9.60;98.10
64620;DHT22;51029;51.058;13.826;2022-11-15T15:47:37;9.50;98.70
64620;DHT22;51029;51.058;13.826;2022-11-15T15:50:08;9.30;99.30
64620;DHT22;51029;51.058;13.826;2022-11-15T15:52:37;9.20;99.70
64620;DHT22;51029;51.058;13.826;2022-11-15T15:55:02;9.20;99.90
64620;DHT22;51029;51.058;13.826;2022-11-15T15:57:28;9.20;99.90
64620;DHT22;51029;51.058;13.826;2022-11-15T15:59:53;9.10;99.90
64620;DHT22;51029;51.058;13.826;2022-11-15T16:02:19;9.00;99.90
64620;DHT22;51029;51.058;13.826;2022-11-15T16:04:44;8.90;99.90
64620;DHT22;51029;51.058;13.826;2022-11-15T16:07:21;8.90;99.90
64620;DHT22;51029;51.058;13.826;2022-11-15T16:09:47;8.90;99.90
64620;DHT22;51029;51.058;13.826;2022-11-15T16:12:34;8.80;99.90
64620;DHT22;51029;51.058;13.826;2022-11-15T16:15:00;8.80;99.90
64620;DHT22;51029;51.058;13.826;2022-11-15T16:17:34;8.60;99.90
64620;DHT22;51029;51.058;13.826;2022-11-15T16:20:01;8.50;99.90
64620;DHT22;51029;51.058;13.826;2022-11-15T16:22:27;8.50;99.90
64620;DHT22;51029;51.058;13.826;2022-11-15T16:24:54;8.40;99.90
64620;DHT22;51029;51.058;13.826;2022-11-15T16:27:21;8.20;99.90
64620;DHT22;51029;51.058;13.826;2022-11-15T16:29:47;8.20;99.90
64620;DHT22;51029;51.058;13.826;2022-11-15T16:32:13;8.30;99.90
64620;DHT22;51029;51.058;13.826;2022-11-15T16:34:39;8.20;99.90
64620;DHT22;51029;51.058;13.826;2022-11-15T16:37:05;8.20;99.90
64620;DHT22;51029;51.058;13.826;2022-11-15T16:39:32;8.20;99.90
64620;DHT22;51029;51.058;13.826;2022-11-15T16:41:58;8.20;99.90
64620;DHT22;51029;51.058;13.826;2022-11-15T16:44:24;8.10;99.90
64620;DHT22;51029;51.058;13.826;2022-11-15T16:46:50;8.00;99.90
64620;DHT22;51029;51.058;13.826;2022-11-15T16:49:17;8.00;99.90
64620;DHT22;51029;51.058;13.826;2022-11-15T16:51:48;7.90;99.90
64620;DHT22;51029;51.058;13.826;2022-11-15T16:54:14;7.90;99.90
64620;DHT22;51029;51.058;13.826;2022-11-15T16:56:40;7.90;99.90
64620;DHT22;51029;51.058;13.826;2022-11-15T16:59:06;7.90;99.90
64620;DHT22;51029;51.058;13.826;2022-11-15T17:01:36;7.90;99.90
64620;DHT22;51029;51.058;13.826;2022-11-15T17:04:15;7.90;99.90
64620;DHT22;51029;51.058;13.826;2022-11-15T17:06:44;7.80;99.90
64620;DHT22;51029;51.058;13.826;2022-11-15T17:09:15;7.80;99.90
64620;DHT22;51029;51.058;13.826;2022-11-15T17:11:41;7.80;99.90
64620;DHT22;51029;51.058;13.826;2022-11-15T17:14:07;7.80;99.90
64620;DHT22;51029;51.058;13.826;2022-11-15T17:16:33;7.80;99.90
64620;DHT22;51029;51.058;13.826;2022-11-15T17:19:00;7.70;99.90
64620;DHT22;51029;51.058;13.826;2022-11-15T17:21:26;7.60;99.90
64620;DHT22;51029;51.058;13.826;2022-11-15T17:23:53;7.60;99.90
64620;DHT22;51029;51.058;13.826;2022-11-15T17:26:19;7.60;99.90
64620;DHT22;51029;51.058;13.826;2022-11-15T17:28:45;7.50;99.90
64620;DHT22;51029;51.058;13.826;2022-11-15T17:31:12;7.50;99.90
64620;DHT22;51029;51.058;13.826;2022-11-15T17:33:39;7.50;99.90
64620;DHT22;51029;51.058;13.826;2022-11-15T17:36:10;7.40;99.90
64620;DHT22;51029;51.058;13.826;2022-11-15T17:38:36;7.40;99.90
64620;DHT22;51029;51.058;13.826;2022-11-15T17:41:04;7.50;99.90
64620;DHT22;51029;51.058;13.826;2022-11-15T17:43:32;7.40;99.90
64620;DHT22;51029;51.058;13.826;2022-11-15T17:45:59;7.40;99.90
64620;DHT22;51029;51.058;13.826;2022-11-15T17:48:25;7.30;99.90
64620;DHT22;51029;51.058;13.826;2022-11-15T17:51:04;7.40;99.90
64620;DHT22;51029;51.058;13.826;2022-11-15T17:53:32;7.30;99.90
64620;DHT22;51029;51.058;13.826;2022-11-15T17:56:12;7.30;99.90
64620;DHT22;51029;51.058;13.826;2022-11-15T17:58:38;7.20;99.90